createdAt,value
2023-03-29T00:01:25.371Z,15
2023-03-29T00:06:25.384Z,14
2023-03-29T00:11:25.373Z,18
2023-03-29T00:16:25.385Z,16
2023-03-29T00:21:25.386Z,13
2023-03-29T00:26:25.387Z,15
2023-03-29T00:31:25.388Z,19
2023-03-29T00:36:25.378Z,20
2023-03-29T00:41:25.389Z,17
2023-03-29T00:46:25.379Z,16
2023-03-29T00:51:25.391Z,11
2023-03-29T00:56:41.185Z,16
2023-03-29T01:01:25.382Z,14
2023-03-29T01:06:25.394Z,13
2023-03-29T01:11:25.384Z,11
2023-03-29T01:16:25.395Z,14
2023-03-29T01:21:25.396Z,14
2023-03-29T01:26:25.397Z,12
2023-03-29T01:31:25.406Z,15
2023-03-29T01:36:25.388Z,18
2023-03-29T01:41:25.401Z,19
2023-03-29T01:46:25.390Z,15
2023-03-29T01:51:25.402Z,17
2023-03-29T01:56:47.163Z,15
2023-03-29T02:01:25.405Z,16
2023-03-29T02:06:25.405Z,19
2023-03-29T02:11:25.394Z,16
2023-03-29T02:16:25.406Z,18
2023-03-29T02:21:25.396Z,11
2023-03-29T02:26:25.408Z,17
2023-03-29T02:31:25.409Z,19
2023-03-29T02:36:25.399Z,19
2023-03-29T02:41:25.411Z,19
2023-03-29T02:46:25.401Z,23
2023-03-29T02:51:25.412Z,20
2023-03-29T02:56:36.688Z,11
2023-03-29T03:01:25.414Z,16
2023-03-29T03:06:25.416Z,18
2023-03-29T03:11:25.405Z,16
2023-03-29T03:16:25.417Z,22
2023-03-29T03:21:25.407Z,22
2023-03-29T03:26:25.418Z,18
2023-03-29T03:31:25.419Z,25
2023-03-29T03:36:25.409Z,24
2023-03-29T03:41:25.422Z,22
2023-03-29T03:46:25.411Z,27
2023-03-29T03:51:25.423Z,13
2023-03-29T03:56:25.433Z,11
2023-03-29T04:01:25.425Z,16
2023-03-29T04:06:25.426Z,20
2023-03-29T04:11:25.416Z,22
2023-03-29T04:16:25.427Z,23
2023-03-29T04:21:25.417Z,22
2023-03-29T04:26:25.429Z,30
2023-03-29T04:31:25.430Z,25
2023-03-29T04:36:25.420Z,27
2023-03-29T04:41:25.432Z,25
2023-03-29T04:46:25.422Z,22
2023-03-29T04:51:25.434Z,26
2023-03-29T04:56:25.424Z,28
2023-03-29T05:01:25.436Z,35
2023-03-29T05:06:25.436Z,45
2023-03-29T05:11:25.427Z,46
2023-03-29T05:16:25.439Z,62
2023-03-29T05:21:25.428Z,59
2023-03-29T05:26:25.448Z,59
2023-03-29T05:31:25.441Z,60
2023-03-29T05:36:25.442Z,60
2023-03-29T05:41:25.444Z,57
2023-03-29T05:46:25.433Z,69
2023-03-29T05:51:25.445Z,50
2023-03-29T05:56:25.435Z,78
2023-03-29T06:01:25.447Z,58
2023-03-29T06:06:25.448Z,58
2023-03-29T06:11:25.438Z,64
2023-03-29T06:16:25.451Z,64
2023-03-29T06:21:25.440Z,63
2023-03-29T06:26:25.452Z,55
2023-03-29T06:31:25.453Z,69
2023-03-29T06:36:25.454Z,67
2023-03-29T06:41:25.456Z,65
2023-03-29T06:46:25.445Z,77
2023-03-29T06:51:25.457Z,64
2023-03-29T06:56:25.447Z,82
2023-03-29T07:01:25.459Z,71
2023-03-29T07:06:25.460Z,58
2023-03-29T07:11:25.450Z,60
2023-03-29T07:16:25.463Z,93
2023-03-29T07:21:25.453Z,90
2023-03-29T07:26:25.465Z,75
2023-03-29T07:31:25.466Z,92
2023-03-29T07:36:25.467Z,94
2023-03-29T07:41:25.469Z,88
2023-03-29T07:46:25.459Z,101
2023-03-29T07:51:25.513Z,89
2023-03-29T07:56:25.461Z,83
2023-03-29T08:01:25.473Z,104
2023-03-29T08:06:25.475Z,94
2023-03-29T08:11:25.476Z,92
2023-03-29T08:16:25.478Z,85
2023-03-29T08:21:25.468Z,95
2023-03-29T08:26:25.480Z,108
2023-03-29T08:31:25.470Z,92
2023-03-29T08:36:25.483Z,98
2023-03-29T08:41:25.484Z,106
2023-03-29T08:46:25.474Z,98
2023-03-29T08:51:25.487Z,108
2023-03-29T08:56:25.477Z,117
2023-03-29T09:01:25.489Z,107
2023-03-29T09:06:25.491Z,120
2023-03-29T09:11:25.492Z,118
2023-03-29T09:16:25.494Z,141
2023-03-29T09:21:25.484Z,116
2023-03-29T09:26:25.497Z,117
2023-03-29T09:31:25.487Z,114
2023-03-29T09:36:25.499Z,104
2023-03-29T09:41:25.501Z,104
2023-03-29T09:46:25.492Z,118
2023-03-29T09:51:25.505Z,131
2023-03-29T09:56:25.495Z,150
2023-03-29T10:01:25.507Z,162
2023-03-29T10:06:25.509Z,135
2023-03-29T10:11:25.510Z,140
2023-03-29T10:16:25.513Z,156
2023-03-29T10:21:25.503Z,159
2023-03-29T10:26:25.581Z,159
2023-03-29T10:31:25.506Z,132
2023-03-29T10:36:25.527Z,128
2023-03-29T10:41:25.520Z,144
2023-03-29T10:46:25.522Z,159
2023-03-29T10:51:25.525Z,170
2023-03-29T10:56:25.515Z,161
2023-03-29T11:01:25.527Z,161
2023-03-29T11:06:25.518Z,159
2023-03-29T11:11:25.531Z,181
2023-03-29T11:16:25.533Z,157
2023-03-29T11:21:25.524Z,140
2023-03-29T11:26:25.537Z,141
2023-03-29T11:31:25.527Z,155
2023-03-29T11:36:25.540Z,145
2023-03-29T11:41:25.542Z,125
2023-03-29T11:46:25.543Z,124
2023-03-29T11:51:25.546Z,133
2023-03-29T11:56:25.536Z,125
2023-03-29T12:01:25.549Z,139
2023-03-29T12:06:25.541Z,117
2023-03-29T12:11:25.554Z,132
2023-03-29T12:16:25.556Z,136
2023-03-29T12:21:25.547Z,130
2023-03-29T12:26:25.560Z,117
2023-03-29T12:31:25.551Z,109
2023-03-29T12:36:25.564Z,104
2023-03-29T12:41:25.565Z,111
2023-03-29T12:46:25.568Z,127
2023-03-29T12:51:25.594Z,162
2023-03-29T12:56:25.561Z,146
2023-03-29T13:01:25.579Z,145
2023-03-29T13:06:25.565Z,128
2023-03-29T13:11:25.578Z,99
2023-03-29T13:16:25.580Z,118
2023-03-29T13:21:25.583Z,117
2023-03-29T13:26:25.584Z,95
2023-03-29T13:31:25.575Z,129
2023-03-29T13:36:25.588Z,116
2023-03-29T13:41:25.579Z,100
2023-03-29T13:46:25.592Z,122
2023-03-29T13:51:25.593Z,130
2023-03-29T13:56:25.585Z,122
2023-03-29T14:01:25.598Z,144
2023-03-29T14:06:25.588Z,142
2023-03-29T14:11:25.601Z,119
2023-03-29T14:16:25.603Z,140
2023-03-29T14:21:25.605Z,119
2023-03-29T14:26:25.608Z,114
2023-03-29T14:31:25.598Z,141
2023-03-29T14:36:25.611Z,129
2023-03-29T14:41:25.602Z,132
2023-03-29T14:46:25.615Z,121
2023-03-29T14:51:25.617Z,103
2023-03-29T14:56:25.608Z,140
2023-03-29T15:01:25.622Z,127
2023-03-29T15:06:25.612Z,134
2023-03-29T15:11:25.625Z,125
2023-03-29T15:16:25.627Z,139
2023-03-29T15:21:25.629Z,145
2023-03-29T15:26:25.631Z,129
2023-03-29T15:31:25.621Z,129
2023-03-29T15:36:25.634Z,114
2023-03-29T15:41:25.625Z,111
2023-03-29T15:46:25.638Z,133
2023-03-29T15:51:25.640Z,107
2023-03-29T15:56:25.666Z,121
2023-03-29T16:01:25.644Z,150
2023-03-29T16:06:25.634Z,143
2023-03-29T16:11:25.647Z,120
2023-03-29T16:16:25.638Z,104
2023-03-29T16:21:25.651Z,87
2023-03-29T16:26:25.717Z,82
2023-03-29T16:31:25.644Z,78
2023-03-29T16:36:25.699Z,85
2023-03-29T16:41:25.647Z,88
2023-03-29T16:46:25.660Z,86
2023-03-29T16:51:25.662Z,61
2023-03-29T16:56:25.663Z,69
2023-03-29T17:01:25.666Z,82
2023-03-29T17:06:25.656Z,56
2023-03-29T17:11:25.669Z,69
2023-03-29T17:16:25.660Z,65
2023-03-29T17:21:25.672Z,86
2023-03-29T17:26:25.674Z,71
2023-03-29T17:31:25.665Z,95
2023-03-29T17:36:25.678Z,75
2023-03-29T17:41:25.668Z,54
2023-03-29T17:46:25.681Z,61
2023-03-29T17:51:25.682Z,69
2023-03-29T17:56:25.684Z,74
2023-03-29T18:01:25.686Z,75
2023-03-29T18:06:25.676Z,96
2023-03-29T18:11:25.689Z,73
2023-03-29T18:16:25.680Z,73
2023-03-29T18:21:25.692Z,73
2023-03-29T18:26:25.694Z,61
2023-03-29T18:31:25.685Z,73
2023-03-29T18:36:25.698Z,75
2023-03-29T18:41:25.688Z,72
2023-03-29T18:46:25.700Z,80
2023-03-29T18:51:25.702Z,78
2023-03-29T18:56:25.704Z,78
2023-03-29T19:01:25.753Z,87
2023-03-29T19:06:25.696Z,94
2023-03-29T19:11:25.709Z,87
2023-03-29T19:16:25.699Z,84
2023-03-29T19:21:25.760Z,94
2023-03-29T19:26:25.713Z,77
2023-03-29T19:31:25.715Z,69
2023-03-29T19:36:25.717Z,72
2023-03-29T19:41:25.707Z,65
2023-03-29T19:46:25.720Z,58
2023-03-29T19:51:25.711Z,60
2023-03-29T19:56:25.723Z,66
2023-03-29T20:01:25.724Z,60
2023-03-29T20:06:25.715Z,56
2023-03-29T20:11:25.728Z,49
2023-03-29T20:16:25.718Z,57
2023-03-29T20:21:25.731Z,60
2023-03-29T20:26:25.732Z,33
2023-03-29T20:31:25.734Z,46
2023-03-29T20:36:25.736Z,44
2023-03-29T20:41:25.726Z,45
2023-03-29T20:46:25.738Z,48
2023-03-29T20:51:25.729Z,44
2023-03-29T20:56:25.741Z,32
2023-03-29T21:01:25.743Z,39
2023-03-29T21:06:25.733Z,36
2023-03-29T21:11:25.746Z,27
2023-03-29T21:16:25.736Z,32
2023-03-29T21:21:25.748Z,36
2023-03-29T21:26:25.750Z,45
2023-03-29T21:31:25.751Z,29
2023-03-29T21:36:25.760Z,26
2023-03-29T21:41:25.743Z,16
2023-03-29T21:46:25.756Z,20
2023-03-29T21:51:25.746Z,21
2023-03-29T21:56:25.758Z,19
2023-03-29T22:01:25.760Z,14
2023-03-29T22:06:25.761Z,13
2023-03-29T22:11:25.763Z,14
2023-03-29T22:16:25.753Z,27
2023-03-29T22:21:25.765Z,16
2023-03-29T22:26:25.756Z,21
2023-03-29T22:31:25.768Z,26
2023-03-29T22:36:25.769Z,27
2023-03-29T22:41:25.760Z,27
2023-03-29T22:46:25.773Z,14
2023-03-29T22:51:25.763Z,18
2023-03-29T22:56:25.775Z,15
2023-03-29T23:01:25.776Z,9
2023-03-29T23:06:25.778Z,16
2023-03-29T23:11:25.780Z,13
2023-03-29T23:16:25.770Z,17
2023-03-29T23:21:25.782Z,18
2023-03-29T23:26:25.773Z,17
2023-03-29T23:31:25.785Z,13
2023-03-29T23:36:25.786Z,16
2023-03-29T23:41:25.777Z,16
2023-03-29T23:46:25.790Z,17
2023-03-29T23:51:25.779Z,13
2023-03-29T23:56:25.792Z,13
